Time;durP1;ratioP1;P1;durP2;ratioP2;P2;SDS_P1;SDS_P2;PMS_P1;PMS_P2;Temp;Humidity;BMP_temperature;BMP_pressure;BME280_temperature;BME280_humidity;BME280_pressure;Samples;Min_cycle;Max_cycle;Signal;HPM_P1;HPM_P2
2022/09/28 00:01:10;;;;;;;6.80;5.65;;;;;;;;;;5053125;28;20052;-72
2022/09/28 00:03:37;;;;;;;9.03;5.57;;;;;;;;;;5053255;28;20037;-72
2022/09/28 00:06:06;;;;;;;10.65;5.75;;;;;;;;;;5052784;28;20336;-72
2022/09/28 00:08:34;;;;;;;6.22;5.38;;;;;;;;;;5052861;28;20099;-72
2022/09/28 00:11:03;;;;;;;8.05;6.53;;;;;;;;;;5052622;28;20052;-72
2022/09/28 00:13:32;;;;;;;9.13;6.90;;;;;;;;;;5052655;28;20096;-72
2022/09/28 00:16:00;;;;;;;8.88;6.90;;;;;;;;;;5052649;28;20041;-72
2022/09/28 00:18:27;;;;;;;8.68;6.80;;;;;;;;;;5052659;28;20552;-72
2022/09/28 00:21:05;;;;;;;10.25;7.63;;;;;;;;;;5052601;28;20080;-72
2022/09/28 00:23:33;;;;;;;7.13;6.22;;;;;;;;;;5052477;28;20039;-72
2022/09/28 00:26:02;;;;;;;8.55;6.97;;;;;;;;;;5052500;28;20045;-72
2022/09/28 00:28:30;;;;;;;6.97;6.20;;;;;;;;;;5052484;28;20036;-72
2022/09/28 00:30:58;;;;;;;7.97;6.80;;;;;;;;;;5051092;28;20044;-72
2022/09/28 00:33:25;;;;;;;9.32;7.43;;;;;;;;;;5051529;28;20068;-72
2022/09/28 00:35:59;;;;;;;10.88;7.07;;;;;;;;;;5050684;28;20075;-72
2022/09/28 00:38:28;;;;;;;9.02;6.72;;;;;;;;;;5052380;28;20041;-72
2022/09/28 00:40:56;;;;;;;12.00;7.63;;;;;;;;;;5052387;28;20048;-72
2022/09/28 00:43:23;;;;;;;9.10;6.07;;;;;;;;;;5052428;28;20060;-72
2022/09/28 00:46:03;;;;;;;7.40;6.10;;;;;;;;;;5051024;28;20431;-72
2022/09/28 00:48:33;;;;;;;7.72;6.18;;;;;;;;;;5050939;28;20056;-72
2022/09/28 00:51:04;;;;;;;10.90;7.65;;;;;;;;;;5051237;28;20383;-72
2022/09/28 00:53:33;;;;;;;9.43;7.07;;;;;;;;;;5051084;28;20103;-72
2022/09/28 00:56:03;;;;;;;12.13;8.27;;;;;;;;;;5051179;28;20123;-72
2022/09/28 00:58:31;;;;;;;9.00;6.72;;;;;;;;;;5050973;28;20586;-72
2022/09/28 01:00:59;;;;;;;8.02;6.63;;;;;;;;;;5050917;28;20080;-72
2022/09/28 01:03:27;;;;;;;7.40;6.70;;;;;;;;;;5050992;28;20052;-72
2022/09/28 01:05:57;;;;;;;7.20;6.50;;;;;;;;;;5050943;28;20114;-72
2022/09/28 01:08:26;;;;;;;7.63;6.57;;;;;;;;;;5050889;28;20502;-72
2022/09/28 01:10:54;;;;;;;9.63;7.22;;;;;;;;;;5050851;28;20049;-72
2022/09/28 01:13:22;;;;;;;7.78;6.15;;;;;;;;;;5052313;28;20095;-72
2022/09/28 01:15:59;;;;;;;7.80;6.20;;;;;;;;;;5051206;28;20049;-72
2022/09/28 01:18:33;;;;;;;7.50;5.88;;;;;;;;;;5051104;28;20095;-72
2022/09/28 01:21:05;;;;;;;8.88;6.47;;;;;;;;;;5051207;28;20170;-72
2022/09/28 01:23:43;;;;;;;7.25;6.40;;;;;;;;;;5050699;28;20137;-72
2022/09/28 01:26:20;;;;;;;7.10;6.00;;;;;;;;;;5050726;28;20087;-72
2022/09/28 01:28:49;;;;;;;7.45;6.43;;;;;;;;;;5052045;28;20490;-72
2022/09/28 01:31:18;;;;;;;7.97;6.28;;;;;;;;;;5034530;28;20494;-72
2022/09/28 01:33:48;;;;;;;8.00;6.40;;;;;;;;;;5050843;28;20513;-72
2022/09/28 01:36:24;;;;;;;10.82;6.03;;;;;;;;;;5050524;28;20059;-72
2022/09/28 01:38:57;;;;;;;8.73;6.63;;;;;;;;;;5051016;28;20517;-72
2022/09/28 01:41:25;;;;;;;9.60;6.72;;;;;;;;;;5050352;28;20040;-72
2022/09/28 01:43:54;;;;;;;9.02;6.30;;;;;;;;;;5050573;28;20041;-72
2022/09/28 01:46:25;;;;;;;9.75;7.07;;;;;;;;;;5051958;28;20128;-72
2022/09/28 01:49:01;;;;;;;9.30;6.28;;;;;;;;;;5053897;28;20048;-72
2022/09/28 01:51:38;;;;;;;8.18;6.88;;;;;;;;;;5054011;28;20095;-73
2022/09/28 01:54:11;;;;;;;11.43;7.30;;;;;;;;;;5053864;28;20052;-72
2022/09/28 01:56:45;;;;;;;10.70;7.22;;;;;;;;;;5053947;28;20406;-72
2022/09/28 01:59:19;;;;;;;9.60;7.10;;;;;;;;;;5054022;28;20041;-72
2022/09/28 02:02:05;;;;;;;11.70;8.15;;;;;;;;;;5053757;28;20076;-72
2022/09/28 02:04:39;;;;;;;10.30;7.70;;;;;;;;;;5053822;28;20045;-72
2022/09/28 02:07:24;;;;;;;11.23;7.65;;;;;;;;;;5053725;28;20068;-72
2022/09/28 02:09:54;;;;;;;9.45;7.60;;;;;;;;;;5053748;28;20120;-72
2022/09/28 02:12:25;;;;;;;9.35;7.40;;;;;;;;;;5053802;28;20601;-72
2022/09/28 02:14:55;;;;;;;10.40;7.63;;;;;;;;;;5053893;28;20041;-72
2022/09/28 02:17:22;;;;;;;9.85;7.82;;;;;;;;;;5053634;28;20052;-72
2022/09/28 02:19:50;;;;;;;9.13;7.22;;;;;;;;;;5055218;28;20091;-72
2022/09/28 02:22:24;;;;;;;9.15;7.32;;;;;;;;;;5054681;28;20457;-72
2022/09/28 02:24:55;;;;;;;9.77;8.10;;;;;;;;;;5054621;28;20498;-72
2022/09/28 02:27:34;;;;;;;9.02;7.50;;;;;;;;;;5053314;28;20049;-72
2022/09/28 02:30:03;;;;;;;10.68;7.88;;;;;;;;;;5053506;28;20065;-72
2022/09/28 02:32:32;;;;;;;10.20;7.70;;;;;;;;;;5053276;28;20041;-72
2022/09/28 02:34:59;;;;;;;12.18;8.38;;;;;;;;;;5053318;28;20048;-72
2022/09/28 02:37:27;;;;;;;10.95;8.52;;;;;;;;;;5053452;28;20572;-72
2022/09/28 02:39:55;;;;;;;11.20;9.20;;;;;;;;;;5053170;28;20045;-72
2022/09/28 02:42:44;;;;;;;9.57;8.05;;;;;;;;;;5053193;28;21139;-72
2022/09/28 02:45:18;;;;;;;10.65;7.78;;;;;;;;;;5052967;28;20091;-72
2022/09/28 02:47:49;;;;;;;11.52;7.75;;;;;;;;;;5052928;28;20145;-72
2022/09/28 02:50:24;;;;;;;9.63;8.00;;;;;;;;;;5052982;28;20037;-72
2022/09/28 02:53:07;;;;;;;10.65;7.90;;;;;;;;;;5052962;28;20396;-73
2022/09/28 02:55:38;;;;;;;8.25;7.32;;;;;;;;;;5053138;28;20448;-72
2022/09/28 02:58:08;;;;;;;10.60;8.30;;;;;;;;;;5052467;28;20131;-72
2022/09/28 03:00:52;;;;;;;9.13;7.72;;;;;;;;;;5052823;28;20490;-72
2022/09/28 03:03:20;;;;;;;9.68;7.60;;;;;;;;;;5052720;28;20044;-72
2022/09/28 03:05:47;;;;;;;10.50;8.20;;;;;;;;;;5052690;28;20043;-72
2022/09/28 03:08:18;;;;;;;10.65;8.70;;;;;;;;;;5052493;28;20414;-72
2022/09/28 03:10:57;;;;;;;9.40;7.57;;;;;;;;;;5052502;28;20080;-72
2022/09/28 03:13:26;;;;;;;8.68;7.68;;;;;;;;;;5052525;28;20160;-72
2022/09/28 03:16:05;;;;;;;13.77;8.30;;;;;;;;;;5052474;28;20041;-72
2022/09/28 03:18:33;;;;;;;9.60;7.85;;;;;;;;;;5052437;28;20064;-72
2022/09/28 03:21:01;;;;;;;10.02;7.63;;;;;;;;;;5052372;28;20037;-72
2022/09/28 03:23:28;;;;;;;12.18;9.00;;;;;;;;;;5052534;28;20044;-72
2022/09/28 03:25:56;;;;;;;20.55;14.85;;;;;;;;;;5052660;28;20037;-72
2022/09/28 03:28:24;;;;;;;22.40;14.60;;;;;;;;;;5052202;28;20048;-72
2022/09/28 03:30:52;;;;;;;15.25;11.45;;;;;;;;;;5051995;28;20071;-72
2022/09/28 03:33:20;;;;;;;14.07;10.98;;;;;;;;;;5052111;28;20110;-72
2022/09/28 03:35:48;;;;;;;19.70;13.07;;;;;;;;;;5052278;28;20529;-72
2022/09/28 03:38:17;;;;;;;12.90;9.95;;;;;;;;;;5052072;28;20044;-72
2022/09/28 03:40:55;;;;;;;17.55;10.25;;;;;;;;;;5051687;28;20451;-72
2022/09/28 03:43:24;;;;;;;22.48;15.93;;;;;;;;;;5051682;28;20041;-72
2022/09/28 03:45:54;;;;;;;25.63;18.52;;;;;;;;;;5051234;28;20049;-72
2022/09/28 03:48:28;;;;;;;18.50;13.10;;;;;;;;;;5051804;28;20075;-72
2022/09/28 03:51:00;;;;;;;19.73;12.80;;;;;;;;;;5052994;28;20044;-72
2022/09/28 03:53:28;;;;;;;24.52;16.35;;;;;;;;;;5051840;28;20070;-72
2022/09/28 03:56:17;;;;;;;22.90;16.65;;;;;;;;;;5051596;28;20045;-73
2022/09/28 03:58:45;;;;;;;19.98;15.52;;;;;;;;;;5053058;28;20083;-73
2022/09/28 04:01:17;;;;;;;15.95;10.65;;;;;;;;;;5051461;28;20052;-73
2022/09/28 04:03:46;;;;;;;14.48;10.18;;;;;;;;;;5051694;28;20045;-73
2022/09/28 04:06:14;;;;;;;18.40;12.07;;;;;;;;;;5051455;28;20041;-73
2022/09/28 04:08:42;;;;;;;14.55;11.48;;;;;;;;;;5051438;28;20486;-73
2022/09/28 04:11:10;;;;;;;13.10;10.60;;;;;;;;;;5050641;28;20098;-73
2022/09/28 04:13:37;;;;;;;17.38;10.50;;;;;;;;;;5051543;28;20047;-73
2022/09/28 04:16:09;;;;;;;14.35;10.20;;;;;;;;;;5051411;28;20079;-73
2022/09/28 04:18:38;;;;;;;13.23;9.60;;;;;;;;;;5051514;28;20052;-73
2022/09/28 04:21:32;;;;;;;13.55;9.82;;;;;;;;;;5044198;28;20149;-73
2022/09/28 04:24:08;;;;;;;14.00;9.77;;;;;;;;;;5051550;28;20045;-73
2022/09/28 04:26:36;;;;;;;14.27;11.40;;;;;;;;;;5051302;28;20041;-73
2022/09/28 04:29:15;;;;;;;12.27;9.63;;;;;;;;;;5051472;28;20037;-73
2022/09/28 04:32:09;;;;;;;10.88;9.65;;;;;;;;;;5050938;28;20158;-73
2022/09/28 04:34:39;;;;;;;14.63;10.52;;;;;;;;;;5051200;28;20587;-73
2022/09/28 04:37:11;;;;;;;13.82;11.32;;;;;;;;;;5050898;28;20059;-73
2022/09/28 04:39:39;;;;;;;14.75;10.20;;;;;;;;;;5050851;28;20033;-73
2022/09/28 04:42:13;;;;;;;12.02;9.80;;;;;;;;;;5049991;28;20065;-73
2022/09/28 04:44:41;;;;;;;15.05;10.35;;;;;;;;;;5049455;28;20037;-73
2022/09/28 04:47:09;;;;;;;14.63;10.85;;;;;;;;;;5049922;28;20131;-73
2022/09/28 04:50:07;;;;;;;14.82;10.02;;;;;;;;;;5049891;28;20136;-73
2022/09/28 04:52:54;;;;;;;15.23;11.30;;;;;;;;;;5051056;28;20516;-73
2022/09/28 04:55:22;;;;;;;11.80;9.98;;;;;;;;;;5049908;28;20049;-73
2022/09/28 04:57:49;;;;;;;11.90;9.35;;;;;;;;;;5051912;28;20037;-73
2022/09/28 05:00:17;;;;;;;12.35;10.75;;;;;;;;;;5050867;28;20049;-73
2022/09/28 05:02:59;;;;;;;13.82;9.70;;;;;;;;;;5051232;28;20583;-72
2022/09/28 05:05:52;;;;;;;12.65;10.35;;;;;;;;;;5052168;28;20060;-73
2022/09/28 05:08:46;;;;;;;17.80;11.88;;;;;;;;;;5051619;28;20142;-73
2022/09/28 05:11:17;;;;;;;13.07;9.48;;;;;;;;;;5050880;28;20049;-73
2022/09/28 05:13:45;;;;;;;15.25;10.68;;;;;;;;;;5052647;28;20393;-73
2022/09/28 05:16:15;;;;;;;14.73;9.07;;;;;;;;;;5070795;28;20405;-73
2022/09/28 05:19:05;;;;;;;17.88;10.63;;;;;;;;;;5061008;28;20083;-72
2022/09/28 05:21:32;;;;;;;11.70;9.73;;;;;;;;;;5072368;28;20057;-72
2022/09/28 05:24:06;;;;;;;13.50;11.13;;;;;;;;;;5074680;28;20131;-72
2022/09/28 05:26:35;;;;;;;11.75;8.45;;;;;;;;;;5074686;28;20079;-73
2022/09/28 05:29:03;;;;;;;9.77;8.13;;;;;;;;;;5071081;28;20041;-73
2022/09/28 05:31:50;;;;;;;11.85;9.15;;;;;;;;;;5065879;28;20051;-73
2022/09/28 05:34:55;;;;;;;11.35;9.85;;;;;;;;;;5059905;28;20106;-73
2022/09/28 05:37:28;;;;;;;16.15;9.05;;;;;;;;;;5060326;28;20386;-73
2022/09/28 05:39:56;;;;;;;11.75;8.68;;;;;;;;;;5055515;28;20053;-73
2022/09/28 05:42:25;;;;;;;12.80;8.98;;;;;;;;;;5061952;28;20033;-72
2022/09/28 05:44:52;;;;;;;21.73;15.10;;;;;;;;;;5064467;28;20147;-73
2022/09/28 05:47:20;;;;;;;16.88;12.75;;;;;;;;;;5064798;28;20040;-73
2022/09/28 05:49:47;;;;;;;13.85;11.10;;;;;;;;;;5068994;28;20056;-74
2022/09/28 05:52:15;;;;;;;13.45;10.65;;;;;;;;;;5074403;28;20044;-73
2022/09/28 05:54:42;;;;;;;16.55;13.75;;;;;;;;;;5074313;28;20071;-73
2022/09/28 05:57:10;;;;;;;19.42;14.18;;;;;;;;;;5068001;28;20052;-73
2022/09/28 05:59:37;;;;;;;15.15;10.98;;;;;;;;;;5054040;28;20045;-72
2022/09/28 06:02:05;;;;;;;10.57;8.32;;;;;;;;;;5054187;28;20525;-72
2022/09/28 06:04:33;;;;;;;12.45;9.73;;;;;;;;;;5053911;28;20071;-72
2022/09/28 06:07:01;;;;;;;15.32;10.77;;;;;;;;;;5053732;28;20041;-72
2022/09/28 06:09:28;;;;;;;13.40;10.98;;;;;;;;;;5053961;28;20049;-72
2022/09/28 06:12:25;;;;;;;8.38;6.43;;;;;;;;;;5046008;28;20056;-72
2022/09/28 06:15:00;;;;;;;11.25;8.60;;;;;;;;;;5087267;28;20418;-72
2022/09/28 06:17:27;;;;;;;10.20;6.95;;;;;;;;;;5055000;28;20045;-73
2022/09/28 06:20:14;;;;;;;11.82;5.80;;;;;;;;;;5054722;28;20044;-73
2022/09/28 06:22:56;;;;;;;9.73;5.68;;;;;;;;;;5054824;28;20098;-74
2022/09/28 06:25:24;;;;;;;6.82;5.80;;;;;;;;;;5054756;28;20072;-73
2022/09/28 06:27:54;;;;;;;5.68;4.95;;;;;;;;;;5055034;28;20065;-73
2022/09/28 06:30:25;;;;;;;5.30;3.88;;;;;;;;;;5053744;28;20049;-74
2022/09/28 06:32:57;;;;;;;4.75;3.70;;;;;;;;;;5086233;28;20041;-74
2022/09/28 06:35:27;;;;;;;7.55;5.00;;;;;;;;;;5053459;28;20041;-74
2022/09/28 06:37:54;;;;;;;6.38;4.13;;;;;;;;;;5086911;28;20045;-74
2022/09/28 06:40:22;;;;;;;8.25;4.32;;;;;;;;;;5053261;28;20045;-74
2022/09/28 06:43:17;;;;;;;5.80;3.90;;;;;;;;;;5053292;28;20482;-75
2022/09/28 06:46:23;;;;;;;8.70;4.93;;;;;;;;;;5054210;28;20095;-75
2022/09/28 06:49:09;;;;;;;9.27;5.60;;;;;;;;;;5053330;28;20073;-77
2022/09/28 06:51:55;;;;;;;5.55;4.13;;;;;;;;;;5054180;28;20048;-75
2022/09/28 06:54:49;;;;;;;6.37;3.80;;;;;;;;;;5044610;28;20061;-75
2022/09/28 06:57:28;;;;;;;6.80;3.90;;;;;;;;;;5080779;28;20076;-73
2022/09/28 06:59:56;;;;;;;5.88;3.53;;;;;;;;;;5045771;28;20056;-73
2022/09/28 07:02:23;;;;;;;5.07;3.53;;;;;;;;;;5051922;28;20041;-74
2022/09/28 07:04:54;;;;;;;5.63;3.90;;;;;;;;;;5032646;28;20096;-73
2022/09/28 07:08:00;;;;;;;4.30;3.28;;;;;;;;;;5018055;28;20052;-73
2022/09/28 07:11:04;;;;;;;5.75;3.45;;;;;;;;;;5019241;28;20094;-73
2022/09/28 07:13:44;;;;;;;4.55;3.47;;;;;;;;;;5050245;28;20041;-72
2022/09/28 07:16:21;;;;;;;4.88;4.15;;;;;;;;;;5057904;28;20979;-73
2022/09/28 07:18:56;;;;;;;5.43;3.30;;;;;;;;;;5067631;28;20087;-73
2022/09/28 07:21:24;;;;;;;7.72;5.05;;;;;;;;;;5072188;28;20106;-73
2022/09/28 07:23:59;;;;;;;12.20;9.25;;;;;;;;;;5068433;28;20040;-73
2022/09/28 07:26:47;;;;;;;8.88;5.13;;;;;;;;;;5052825;28;20049;-72
2022/09/28 07:29:34;;;;;;;37.95;29.48;;;;;;;;;;5073069;28;20094;-73
2022/09/28 07:32:22;;;;;;;7.68;5.68;;;;;;;;;;5072113;28;20044;-73
2022/09/28 07:34:59;;;;;;;13.38;9.13;;;;;;;;;;5071579;28;20040;-72
2022/09/28 07:37:36;;;;;;;10.52;5.50;;;;;;;;;;5071729;28;20062;-73
2022/09/28 07:42:52;;;;;;;8.18;5.88;;;;;;;;;;5071589;28;20068;-73
2022/09/28 07:45:22;;;;;;;9.85;6.65;;;;;;;;;;5065328;28;20111;-72
2022/09/28 07:47:50;;;;;;;11.05;9.88;;;;;;;;;;5070135;28;20139;-72
2022/09/28 07:50:34;;;;;;;10.95;9.18;;;;;;;;;;5069344;28;20088;-72
2022/09/28 07:53:26;;;;;;;9.10;5.80;;;;;;;;;;5071437;28;20045;-73
2022/09/28 07:56:12;;;;;;;11.73;6.68;;;;;;;;;;5071352;28;20048;-73
2022/09/28 07:58:52;;;;;;;8.43;5.53;;;;;;;;;;5071411;28;20049;-73
2022/09/28 08:01:39;;;;;;;8.55;4.63;;;;;;;;;;5072746;28;20051;-73
2022/09/28 08:04:09;;;;;;;9.55;6.22;;;;;;;;;;5071378;28;20098;-72
2022/09/28 08:06:39;;;;;;;9.32;8.18;;;;;;;;;;5071417;28;20693;-73
2022/09/28 08:09:08;;;;;;;16.08;9.90;;;;;;;;;;5071200;28;20114;-73
2022/09/28 08:11:54;;;;;;;8.10;4.35;;;;;;;;;;5072730;28;20051;-73
2022/09/28 08:14:34;;;;;;;9.38;3.67;;;;;;;;;;5071451;28;20057;-74
2022/09/28 08:17:17;;;;;;;16.92;12.57;;;;;;;;;;5071428;28;20071;-73
2022/09/28 08:22:38;;;;;;;60.20;43.88;;;;;;;;;;5071482;28;20079;-73
2022/09/28 08:25:05;;;;;;;26.30;19.30;;;;;;;;;;5071116;28;20063;-73
2022/09/28 08:27:33;;;;;;;11.65;9.57;;;;;;;;;;5072431;28;20398;-73
2022/09/28 08:30:01;;;;;;;8.82;5.68;;;;;;;;;;5071021;28;20052;-73
2022/09/28 08:32:49;;;;;;;10.20;6.63;;;;;;;;;;5071044;28;20049;-73
2022/09/28 08:35:35;;;;;;;56.40;42.20;;;;;;;;;;5072572;28;20134;-73
2022/09/28 08:38:28;;;;;;;10.73;6.90;;;;;;;;;;5057421;28;20143;-73
2022/09/28 08:41:09;;;;;;;13.85;9.00;;;;;;;;;;5072448;28;20045;-73
2022/09/28 08:43:56;;;;;;;7.53;4.88;;;;;;;;;;5071137;28;20047;-73
2022/09/28 08:46:35;;;;;;;;;;;;;;;;;;5071417;28;20529;-73
2022/09/28 08:49:38;;;;;;;7.50;4.95;;;;;;;;;;5070998;28;20290;-74
2022/09/28 08:52:22;;;;;;;7.03;4.30;;;;;;;;;;5071095;28;20051;-73
2022/09/28 08:55:19;;;;;;;11.88;8.45;;;;;;;;;;5067249;28;20605;-73
2022/09/28 08:57:51;;;;;;;3.83;3.00;;;;;;;;;;5074711;28;20451;-73
2022/09/28 09:00:27;;;;;;;4.45;3.10;;;;;;;;;;5075131;28;20097;-73
2022/09/28 09:02:55;;;;;;;6.90;2.75;;;;;;;;;;5074991;28;20044;-73
2022/09/28 09:05:39;;;;;;;6.22;3.13;;;;;;;;;;5074967;28;20389;-73
2022/09/28 09:08:07;;;;;;;4.93;3.08;;;;;;;;;;5074910;28;20052;-73
2022/09/28 09:10:47;;;;;;;4.68;3.15;;;;;;;;;;5074743;28;20052;-74
2022/09/28 09:13:34;;;;;;;5.20;3.15;;;;;;;;;;5074752;28;20050;-73
2022/09/28 09:44:17;;;;;;;5.32;3.97;;;;;;;;;;5136600;22;20473;-73
2022/09/28 09:47:03;;;;;;;9.52;4.80;;;;;;;;;;5111094;28;20094;-73
2022/09/28 09:49:48;;;;;;;6.00;4.00;;;;;;;;;;5092012;28;20035;-74
2022/09/28 09:52:27;;;;;;;3.33;2.92;;;;;;;;;;5092137;28;20130;-71
2022/09/28 09:54:58;;;;;;;5.57;2.30;;;;;;;;;;5092032;28;20047;-72
2022/09/28 09:57:38;;;;;;;7.03;4.68;;;;;;;;;;5076685;28;20095;-73
2022/09/28 10:00:24;;;;;;;3.63;2.33;;;;;;;;;;5110610;28;20189;-73
2022/09/28 10:03:05;;;;;;;3.55;2.45;;;;;;;;;;5091864;28;20573;-73
2022/09/28 10:05:38;;;;;;;4.65;2.10;;;;;;;;;;5091880;28;20106;-73
2022/09/28 10:08:08;;;;;;;6.78;2.40;;;;;;;;;;5091900;28;20074;-73
2022/09/28 10:10:47;;;;;;;2.90;1.83;;;;;;;;;;5091772;28;20047;-73
2022/09/28 10:13:19;;;;;;;4.25;2.67;;;;;;;;;;5091819;28;20044;-73
2022/09/28 10:15:50;;;;;;;7.50;4.32;;;;;;;;;;5075138;28;20039;-73
2022/09/28 10:18:34;;;;;;;9.82;6.45;;;;;;;;;;5091631;28;20047;-73
2022/09/28 10:21:36;;;;;;;13.07;10.25;;;;;;;;;;5075301;28;20066;-72
2022/09/28 10:24:35;;;;;;;9.65;4.47;;;;;;;;;;5101494;28;20058;-73
2022/09/28 10:27:04;;;;;;;7.45;5.13;;;;;;;;;;5091498;28;20420;-73
2022/09/28 10:29:52;;;;;;;6.47;4.47;;;;;;;;;;5091378;28;20043;-73
2022/09/28 10:32:39;;;;;;;2.83;2.25;;;;;;;;;;5091516;28;20511;-73
2022/09/28 10:35:16;;;;;;;3.78;2.30;;;;;;;;;;5091206;28;20054;-73
2022/09/28 10:37:58;;;;;;;5.85;2.65;;;;;;;;;;5091392;28;20135;-73
2022/09/28 10:41:02;;;;;;;4.28;2.70;;;;;;;;;;5086568;28;20059;-73
2022/09/28 10:44:07;;;;;;;4.20;2.58;;;;;;;;;;5100132;28;20047;-71
2022/09/28 10:47:00;;;;;;;4.13;2.83;;;;;;;;;;5096152;28;20531;-71
2022/09/28 10:49:36;;;;;;;4.63;2.20;;;;;;;;;;5077661;28;20131;-72
2022/09/28 10:52:07;;;;;;;4.28;2.67;;;;;;;;;;5077753;28;20122;-72
2022/09/28 10:54:52;;;;;;;8.32;4.18;;;;;;;;;;5077534;28;20052;-72
2022/09/28 10:57:29;;;;;;;5.22;2.75;;;;;;;;;;5077343;28;20040;-73
2022/09/28 11:00:04;;;;;;;5.55;1.83;;;;;;;;;;5077354;28;20529;-72
2022/09/28 11:02:38;;;;;;;5.13;2.15;;;;;;;;;;5077356;28;20050;-73
2022/09/28 11:05:22;;;;;;;6.75;4.40;;;;;;;;;;5077217;28;20516;-73
2022/09/28 11:07:54;;;;;;;3.75;1.98;;;;;;;;;;5077275;28;20523;-72
2022/09/28 11:10:29;;;;;;;6.50;3.40;;;;;;;;;;5077253;28;20052;-72
2022/09/28 11:13:03;;;;;;;6.63;2.83;;;;;;;;;;5077295;28;20441;-72
2022/09/28 11:15:32;;;;;;;3.22;2.20;;;;;;;;;;5077057;28;20040;-72
2022/09/28 11:18:36;;;;;;;2.85;2.03;;;;;;;;;;5077085;28;20055;-72
2022/09/28 11:21:10;;;;;;;4.07;3.17;;;;;;;;;;5035276;28;20151;-72
2022/09/28 11:24:05;;;;;;;8.80;6.28;;;;;;;;;;5076844;28;20043;-72
2022/09/28 11:26:39;;;;;;;6.82;3.17;;;;;;;;;;5076717;28;20170;-72
2022/09/28 11:29:21;;;;;;;18.52;15.73;;;;;;;;;;5076792;28;20036;-73
2022/09/28 11:32:03;;;;;;;6.40;4.38;;;;;;;;;;5076604;28;20055;-72
2022/09/28 11:34:45;;;;;;;4.55;3.30;;;;;;;;;;5061926;28;20117;-72
2022/09/28 11:38:00;;;;;;;7.33;4.70;;;;;;;;;;5076726;28;20048;-72
2022/09/28 11:41:09;;;;;;;4.05;2.40;;;;;;;;;;4991657;28;20052;-72
2022/09/28 11:43:43;;;;;;;6.93;3.25;;;;;;;;;;4995802;28;20087;-72
2022/09/28 11:46:30;;;;;;;12.27;7.22;;;;;;;;;;5036822;28;20037;-72
2022/09/28 11:49:10;;;;;;;4.22;2.50;;;;;;;;;;5072924;28;20136;-72
2022/09/28 11:51:40;;;;;;;5.97;2.40;;;;;;;;;;5072983;28;20040;-73
2022/09/28 11:54:13;;;;;;;5.40;3.22;;;;;;;;;;5072893;28;20040;-72
2022/09/28 11:56:42;;;;;;;8.77;3.72;;;;;;;;;;5072044;28;20048;-72
2022/09/28 11:59:16;;;;;;;5.10;3.22;;;;;;;;;;5072950;28;20478;-72
2022/09/28 12:01:55;;;;;;;4.38;2.85;;;;;;;;;;5072796;28;20075;-72
2022/09/28 12:04:47;;;;;;;6.50;2.33;;;;;;;;;;5068146;28;20151;-72
2022/09/28 12:07:22;;;;;;;7.07;2.20;;;;;;;;;;5072575;28;20047;-72
2022/09/28 12:09:52;;;;;;;5.97;2.53;;;;;;;;;;5072502;28;20135;-72
2022/09/28 12:12:44;;;;;;;7.68;3.00;;;;;;;;;;5073872;28;20043;-72
2022/09/28 12:15:45;;;;;;;5.63;2.13;;;;;;;;;;5072611;28;20044;-72
2022/09/28 12:18:41;;;;;;;5.65;3.00;;;;;;;;;;5041689;28;20048;-73
2022/09/28 12:21:18;;;;;;;7.10;2.50;;;;;;;;;;5073608;28;20036;-72
2022/09/28 12:23:47;;;;;;;3.33;1.98;;;;;;;;;;5073619;28;20044;-72
2022/09/28 12:26:33;;;;;;;6.93;2.00;;;;;;;;;;5073700;28;20556;-72
2022/09/28 12:29:06;;;;;;;5.95;3.38;;;;;;;;;;5073852;28;20143;-73
2022/09/28 12:31:39;;;;;;;5.28;1.92;;;;;;;;;;5072289;28;20050;-73
2022/09/28 12:34:09;;;;;;;5.78;2.42;;;;;;;;;;5073406;28;20500;-73
2022/09/28 12:36:40;;;;;;;3.67;2.05;;;;;;;;;;5073347;28;20045;-71
2022/09/28 12:39:12;;;;;;;4.50;2.90;;;;;;;;;;5073372;28;20040;-72
2022/09/28 12:41:59;;;;;;;3.00;1.60;;;;;;;;;;5074556;28;20041;-72
2022/09/28 12:44:37;;;;;;;6.55;2.35;;;;;;;;;;5093555;28;20048;-71
2022/09/28 12:47:23;;;;;;;5.22;2.33;;;;;;;;;;5093376;28;20036;-72
2022/09/28 12:49:51;;;;;;;6.03;2.70;;;;;;;;;;5093429;28;20458;-72
2022/09/28 12:52:41;;;;;;;3.90;2.05;;;;;;;;;;5093480;28;20055;-72
2022/09/28 12:55:21;;;;;;;4.75;1.70;;;;;;;;;;5093386;28;20396;-72
2022/09/28 12:57:51;;;;;;;4.18;2.10;;;;;;;;;;5093377;28;20051;-73
2022/09/28 13:00:23;;;;;;;4.75;2.20;;;;;;;;;;5093277;28;20035;-72
2022/09/28 13:02:57;;;;;;;5.47;3.00;;;;;;;;;;5093178;28;20032;-73
2022/09/28 13:05:25;;;;;;;5.72;2.90;;;;;;;;;;5093114;28;20040;-73
2022/09/28 13:07:54;;;;;;;6.43;2.40;;;;;;;;;;5092889;28;20501;-72
2022/09/28 13:10:31;;;;;;;5.70;2.50;;;;;;;;;;5093096;28;20072;-71
2022/09/28 13:13:17;;;;;;;5.38;2.60;;;;;;;;;;5093284;28;20047;-72
2022/09/28 13:15:54;;;;;;;4.53;2.17;;;;;;;;;;5093181;28;20036;-73
2022/09/28 13:18:35;;;;;;;5.32;2.20;;;;;;;;;;5093074;28;20071;-73
2022/09/28 13:21:10;;;;;;;6.45;4.28;;;;;;;;;;5093201;28;20047;-73
2022/09/28 13:23:47;;;;;;;4.03;2.97;;;;;;;;;;5092864;28;20048;-73
2022/09/28 13:26:18;;;;;;;4.20;2.90;;;;;;;;;;5092968;28;20073;-73
2022/09/28 13:28:46;;;;;;;3.78;2.10;;;;;;;;;;5093208;28;20046;-73
2022/09/28 13:31:18;;;;;;;4.30;2.35;;;;;;;;;;5092857;28;20071;-73
2022/09/28 13:33:47;;;;;;;3.13;1.70;;;;;;;;;;5092748;28;20044;-72
2022/09/28 13:36:29;;;;;;;6.13;3.90;;;;;;;;;;5092773;28;20072;-73
2022/09/28 13:38:58;;;;;;;4.28;2.45;;;;;;;;;;5092438;28;20477;-75
2022/09/28 13:41:33;;;;;;;4.15;2.28;;;;;;;;;;5092986;28;20040;-72
2022/09/28 13:44:15;;;;;;;4.50;1.95;;;;;;;;;;5091401;28;20044;-73
2022/09/28 13:46:48;;;;;;;3.80;2.40;;;;;;;;;;5071973;28;20060;-75
2022/09/28 13:49:16;;;;;;;2.13;1.55;;;;;;;;;;5072531;28;20051;-75
2022/09/28 13:51:46;;;;;;;6.40;2.70;;;;;;;;;;5072210;28;20098;-77
2022/09/28 13:54:28;;;;;;;3.35;2.00;;;;;;;;;;5072370;28;20047;-76
2022/09/28 13:57:11;;;;;;;4.25;2.60;;;;;;;;;;5072235;28;20036;-76
2022/09/28 13:59:56;;;;;;;4.97;3.17;;;;;;;;;;5054182;28;20136;-75
2022/09/28 14:02:35;;;;;;;3.05;1.73;;;;;;;;;;5072243;28;20091;-76
2022/09/28 14:05:04;;;;;;;6.60;2.40;;;;;;;;;;5054870;28;20505;-78
2022/09/28 14:07:35;;;;;;;6.35;3.58;;;;;;;;;;5054405;28;20032;-77
2022/09/28 14:10:18;;;;;;;7.78;3.55;;;;;;;;;;5072338;28;20048;-78
2022/09/28 14:12:46;;;;;;;8.93;3.75;;;;;;;;;;5072145;28;20079;-77
2022/09/28 14:15:29;;;;;;;6.60;3.00;;;;;;;;;;5072044;28;20474;-76
2022/09/28 14:18:15;;;;;;;5.88;4.10;;;;;;;;;;5072248;28;20051;-78
2022/09/28 14:20:50;;;;;;;4.00;2.47;;;;;;;;;;5075549;28;20032;-78
2022/09/28 14:23:17;;;;;;;4.10;2.00;;;;;;;;;;5075614;28;20040;-78
2022/09/28 14:25:58;;;;;;;6.15;2.50;;;;;;;;;;5080685;28;20059;-77
2022/09/28 14:28:33;;;;;;;4.50;1.83;;;;;;;;;;5094207;28;20111;-76
2022/09/28 14:31:06;;;;;;;4.05;2.00;;;;;;;;;;5092843;28;20397;-79
2022/09/28 14:33:37;;;;;;;4.88;2.70;;;;;;;;;;5095079;28;20052;-76
2022/09/28 14:41:08;;;;;;;6.22;2.47;;;;;;;;;;5095350;28;20499;-78
2022/09/28 14:42:14;;;;;;;4.40;2.55;;;;;;;;;;5093774;28;20047;-79
2022/09/28 14:45:14;;;;;;;6.75;2.63;;;;;;;;;;5093454;28;20136;-79
2022/09/28 14:47:42;;;;;;;8.93;2.67;;;;;;;;;;5038862;28;20502;-77
2022/09/28 14:50:26;;;;;;;14.60;7.55;;;;;;;;;;5095233;28;20508;-79
2022/09/28 14:52:54;;;;;;;14.00;5.57;;;;;;;;;;5289057;22;20036;-78
2022/09/28 14:55:32;;;;;;;8.65;3.83;;;;;;;;;;5095396;28;20513;-78
2022/09/28 14:58:03;;;;;;;6.03;3.40;;;;;;;;;;5095386;28;20036;-78
2022/09/28 15:00:30;;;;;;;7.28;2.60;;;;;;;;;;5095489;28;20079;-78
2022/09/28 15:03:04;;;;;;;9.02;2.90;;;;;;;;;;5095584;28;20068;-78
2022/09/28 15:05:42;;;;;;;12.20;7.13;;;;;;;;;;5095496;28;20040;-78
2022/09/28 15:08:11;;;;;;;8.98;4.53;;;;;;;;;;5094051;28;20077;-85
2022/09/28 15:10:41;;;;;;;9.68;4.78;;;;;;;;;;5094006;28;20493;-78
2022/09/28 15:13:20;;;;;;;10.80;4.13;;;;;;;;;;5095222;28;20051;-77
2022/09/28 15:15:49;;;;;;;6.28;3.60;;;;;;;;;;5094663;28;20032;-78
2022/09/28 15:18:29;;;;;;;12.90;8.30;;;;;;;;;;5094665;28;20038;-78
2022/09/28 15:20:57;;;;;;;11.25;4.97;;;;;;;;;;5094729;28;20059;-77
2022/09/28 15:23:33;;;;;;;7.38;2.92;;;;;;;;;;5094523;28;20429;-77
2022/09/28 15:26:01;;;;;;;14.38;9.20;;;;;;;;;;5093941;28;20044;-74
2022/09/28 15:28:29;;;;;;;15.70;11.25;;;;;;;;;;5093747;28;20112;-74
2022/09/28 15:31:00;;;;;;;8.60;3.08;;;;;;;;;;5092331;28;20093;-73
2022/09/28 15:36:20;;;;;;;9.27;5.85;;;;;;;;;;5089174;28;20118;-73
2022/09/28 15:38:54;;;;;;;5.60;3.40;;;;;;;;;;5085401;28;20044;-73
2022/09/28 15:41:23;;;;;;;7.97;4.93;;;;;;;;;;5087171;28;20035;-73
2022/09/28 15:44:08;;;;;;;12.95;6.32;;;;;;;;;;5073732;28;20068;-73
2022/09/28 15:46:39;;;;;;;15.98;8.35;;;;;;;;;;5094518;28;20040;-75
2022/09/28 15:49:07;;;;;;;40.85;29.80;;;;;;;;;;5086943;28;20511;-74
2022/09/28 15:51:47;;;;;;;22.65;15.27;;;;;;;;;;5091701;28;20157;-75
2022/09/28 15:54:18;;;;;;;21.80;13.35;;;;;;;;;;5093089;28;20489;-75
2022/09/28 15:57:01;;;;;;;14.20;9.70;;;;;;;;;;5094002;28;20412;-75
2022/09/28 15:59:31;;;;;;;12.90;9.48;;;;;;;;;;5092645;28;20046;-75
2022/09/28 16:02:17;;;;;;;13.70;7.15;;;;;;;;;;5093330;28;20066;-75
2022/09/28 16:04:52;;;;;;;8.30;5.05;;;;;;;;;;5092729;28;20145;-76
2022/09/28 16:07:28;;;;;;;11.13;6.13;;;;;;;;;;5083522;28;20032;-75